Terminal Aerodrome Forecast
Issued by NWS

Current Version | Previous Version | Graphics & Text | Print | Product List | Glossary On
Versions: 1 2 3 4 5 6 7 8 9 10 11 12 13 14 15 16 17 18 19 20 21 22 23 24
313
FTUS41 KPBZ 261723
TAFHLG
TAF
KHLG 261723Z 2618/2718 26014G23KT P6SM BKN025
     FM262000 27013G22KT P6SM VCTS BKN025CB
      TEMPO 2621/2623 4SM TSRA OVC025CB
     FM262300 30009KT P6SM BKN050
     FM270900 VRB04KT P6SM BKN015
     FM271400 03006KT P6SM SCT060=

USA.gov is the U.S. government's official web portal to all federal, state and local government web resources and services.